首页
METAR-TAF:

METAR-TAF

机场 :

哈尔滨太平国际机场

哈尔滨, 中华人民共和国

纬度: 45-45N, 经度: 126-46E, 海拔: 143米

当前天气观测

该预报发布于25分钟前的04:00 UTC
风速4节,风向东转东北,在东北东转东南之间变化
温度 0°C
湿度 59%
气压 1018 hPa
能見度: 8000

METAR: ZYHB 180400Z 07002MPS 040V110 8000 NSC M00/M07 Q1018 NOSIG

时间: 12:25 (04:25 UTC)

预报

该预报发布于9小时和2分钟前的19:23 UTC
预报有效从18日的 00点(UTC)到 18日的 24点(UTC)
风速6节,风向
能見度: 6000
多云层高于3000英尺

TAF: ZYHB 171923Z 1800/1824 10003MPS 6000 BKN030 TX00/1806Z TNM11/21Z

超过4000个机场的气象观测和天气预报(METAR&TAF报告)。

可查询的气象台以黄色和红色小点在地图上表示。

将鼠标移到小点上方,可查看气象台名称。

然后点击查看天气观测和预报。

如需切换地图:点击带黑十字的绿色按钮放大地图;点击带横线的绿色按钮缩小地图;或者点击绿色箭头查看邻近地区的地图。


METAR-TAF: